sensor_id;sensor_type;location;lat;lon;timestamp;temperature;humidity
21267;DHT22;10791;53.108;18.326;2023-06-19T00:03:33;14.90;99.90
21267;DHT22;10791;53.108;18.326;2023-06-19T00:08:36;14.80;99.90
21267;DHT22;10791;53.108;18.326;2023-06-19T00:13:39;14.70;99.90
21267;DHT22;10791;53.108;18.326;2023-06-19T00:18:43;14.60;99.90
21267;DHT22;10791;53.108;18.326;2023-06-19T00:23:46;14.50;99.90
21267;DHT22;10791;53.108;18.326;2023-06-19T00:28:49;14.50;99.90
21267;DHT22;10791;53.108;18.326;2023-06-19T00:33:53;14.40;99.90
21267;DHT22;10791;53.108;18.326;2023-06-19T00:38:56;14.40;99.90
21267;DHT22;10791;53.108;18.326;2023-06-19T00:44:00;14.20;99.90
21267;DHT22;10791;53.108;18.326;2023-06-19T00:49:03;14.10;99.90
21267;DHT22;10791;53.108;18.326;2023-06-19T00:54:07;14.00;99.90
21267;DHT22;10791;53.108;18.326;2023-06-19T00:59:19;14.00;99.90
21267;DHT22;10791;53.108;18.326;2023-06-19T01:04:22;14.00;99.90
21267;DHT22;10791;53.108;18.326;2023-06-19T01:09:29;14.00;99.90
21267;DHT22;10791;53.108;18.326;2023-06-19T01:14:54;13.90;99.90
21267;DHT22;10791;53.108;18.326;2023-06-19T01:19:59;13.90;99.90
21267;DHT22;10791;53.108;18.326;2023-06-19T01:25:03;13.80;99.90
21267;DHT22;10791;53.108;18.326;2023-06-19T01:30:09;13.70;99.90
21267;DHT22;10791;53.108;18.326;2023-06-19T01:35:14;13.60;99.90
21267;DHT22;10791;53.108;18.326;2023-06-19T01:40:18;13.50;99.90
21267;DHT22;10791;53.108;18.326;2023-06-19T01:45:28;13.50;99.90
21267;DHT22;10791;53.108;18.326;2023-06-19T01:50:32;13.50;99.90
21267;DHT22;10791;53.108;18.326;2023-06-19T01:55:35;13.50;99.90
21267;DHT22;10791;53.108;18.326;2023-06-19T02:00:39;13.50;99.90
21267;DHT22;10791;53.108;18.326;2023-06-19T02:05:42;13.40;99.90
21267;DHT22;10791;53.108;18.326;2023-06-19T02:10:46;13.30;99.90
21267;DHT22;10791;53.108;18.326;2023-06-19T02:15:49;13.30;99.90
21267;DHT22;10791;53.108;18.326;2023-06-19T02:20:54;13.30;99.90
21267;DHT22;10791;53.108;18.326;2023-06-19T02:25:57;13.30;99.90
21267;DHT22;10791;53.108;18.326;2023-06-19T02:31:00;13.40;99.90
21267;DHT22;10791;53.108;18.326;2023-06-19T02:36:04;13.40;99.90
21267;DHT22;10791;53.108;18.326;2023-06-19T02:41:07;13.40;99.90
21267;DHT22;10791;53.108;18.326;2023-06-19T02:46:10;13.40;99.90
21267;DHT22;10791;53.108;18.326;2023-06-19T02:51:15;13.40;99.90
21267;DHT22;10791;53.108;18.326;2023-06-19T02:56:18;13.40;99.90
21267;DHT22;10791;53.108;18.326;2023-06-19T03:01:22;13.40;99.90
21267;DHT22;10791;53.108;18.326;2023-06-19T03:06:25;13.40;99.90
21267;DHT22;10791;53.108;18.326;2023-06-19T03:11:29;13.40;99.90
21267;DHT22;10791;53.108;18.326;2023-06-19T03:16:33;13.40;99.90
21267;DHT22;10791;53.108;18.326;2023-06-19T03:21:37;13.40;99.90
21267;DHT22;10791;53.108;18.326;2023-06-19T03:26:40;13.50;99.90
21267;DHT22;10791;53.108;18.326;2023-06-19T03:31:43;13.50;99.90
21267;DHT22;10791;53.108;18.326;2023-06-19T03:36:47;13.70;99.90
21267;DHT22;10791;53.108;18.326;2023-06-19T03:41:50;13.80;99.90
21267;DHT22;10791;53.108;18.326;2023-06-19T03:46:53;14.00;99.90
21267;DHT22;10791;53.108;18.326;2023-06-19T03:51:57;14.20;99.90
21267;DHT22;10791;53.108;18.326;2023-06-19T03:57:01;14.40;99.90
21267;DHT22;10791;53.108;18.326;2023-06-19T04:02:05;14.50;99.90
21267;DHT22;10791;53.108;18.326;2023-06-19T04:07:08;14.90;99.90
21267;DHT22;10791;53.108;18.326;2023-06-19T04:12:13;15.20;99.90
21267;DHT22;10791;53.108;18.326;2023-06-19T04:17:16;15.40;99.90
21267;DHT22;10791;53.108;18.326;2023-06-19T04:22:20;15.50;99.90
21267;DHT22;10791;53.108;18.326;2023-06-19T04:27:23;15.80;99.90
21267;DHT22;10791;53.108;18.326;2023-06-19T04:32:27;16.30;99.90
21267;DHT22;10791;53.108;18.326;2023-06-19T04:37:31;17.30;99.90
21267;DHT22;10791;53.108;18.326;2023-06-19T04:42:34;19.10;99.90
21267;DHT22;10791;53.108;18.326;2023-06-19T04:47:37;20.50;99.90
21267;DHT22;10791;53.108;18.326;2023-06-19T04:52:55;22.00;99.90
21267;DHT22;10791;53.108;18.326;2023-06-19T04:57:59;23.00;99.90
21267;DHT22;10791;53.108;18.326;2023-06-19T05:03:02;24.00;99.90
21267;DHT22;10791;53.108;18.326;2023-06-19T05:08:06;24.60;99.90
21267;DHT22;10791;53.108;18.326;2023-06-19T05:13:10;24.60;99.90
21267;DHT22;10791;53.108;18.326;2023-06-19T05:18:13;24.10;99.90
21267;DHT22;10791;53.108;18.326;2023-06-19T05:23:16;23.30;99.90
21267;DHT22;10791;53.108;18.326;2023-06-19T05:28:20;22.60;99.90
21267;DHT22;10791;53.108;18.326;2023-06-19T05:33:23;22.10;99.90
21267;DHT22;10791;53.108;18.326;2023-06-19T05:38:26;21.60;99.90
21267;DHT22;10791;53.108;18.326;2023-06-19T05:43:33;21.20;99.90
21267;DHT22;10791;53.108;18.326;2023-06-19T05:48:36;20.80;99.90
21267;DHT22;10791;53.108;18.326;2023-06-19T05:53:39;20.60;99.90
21267;DHT22;10791;53.108;18.326;2023-06-19T05:58:43;20.40;99.90
21267;DHT22;10791;53.108;18.326;2023-06-19T06:03:47;20.30;99.90
21267;DHT22;10791;53.108;18.326;2023-06-19T06:08:50;20.30;99.90
21267;DHT22;10791;53.108;18.326;2023-06-19T06:13:54;20.30;99.90
21267;DHT22;10791;53.108;18.326;2023-06-19T06:18:57;20.30;99.90
21267;DHT22;10791;53.108;18.326;2023-06-19T06:24:02;20.40;99.90
21267;DHT22;10791;53.108;18.326;2023-06-19T06:29:06;20.50;99.90
21267;DHT22;10791;53.108;18.326;2023-06-19T06:34:09;20.70;99.90
21267;DHT22;10791;53.108;18.326;2023-06-19T06:39:12;20.90;99.90
21267;DHT22;10791;53.108;18.326;2023-06-19T06:44:16;21.10;99.90
21267;DHT22;10791;53.108;18.326;2023-06-19T06:49:19;21.30;99.90
21267;DHT22;10791;53.108;18.326;2023-06-19T06:54:23;21.60;99.90
21267;DHT22;10791;53.108;18.326;2023-06-19T06:59:27;21.80;99.90
21267;DHT22;10791;53.108;18.326;2023-06-19T07:04:30;22.00;99.90
21267;DHT22;10791;53.108;18.326;2023-06-19T07:09:34;22.20;99.90
21267;DHT22;10791;53.108;18.326;2023-06-19T07:14:38;22.40;99.90
21267;DHT22;10791;53.108;18.326;2023-06-19T07:19:41;22.50;99.90
21267;DHT22;10791;53.108;18.326;2023-06-19T07:24:44;22.80;99.90
21267;DHT22;10791;53.108;18.326;2023-06-19T07:29:48;23.00;99.90
21267;DHT22;10791;53.108;18.326;2023-06-19T07:34:51;23.20;99.90
21267;DHT22;10791;53.108;18.326;2023-06-19T07:39:55;23.30;99.90
21267;DHT22;10791;53.108;18.326;2023-06-19T07:44:58;23.50;99.90
21267;DHT22;10791;53.108;18.326;2023-06-19T07:50:02;23.70;99.90
21267;DHT22;10791;53.108;18.326;2023-06-19T07:55:05;23.90;99.90
21267;DHT22;10791;53.108;18.326;2023-06-19T08:00:09;23.90;99.90
21267;DHT22;10791;53.108;18.326;2023-06-19T08:05:15;24.00;99.90
21267;DHT22;10791;53.108;18.326;2023-06-19T08:10:19;24.20;98.60
21267;DHT22;10791;53.108;18.326;2023-06-19T08:15:22;24.40;98.30
21267;DHT22;10791;53.108;18.326;2023-06-19T08:20:26;24.50;98.00
21267;DHT22;10791;53.108;18.326;2023-06-19T08:25:30;24.70;97.90
21267;DHT22;10791;53.108;18.326;2023-06-19T08:30:33;24.90;97.50
21267;DHT22;10791;53.108;18.326;2023-06-19T08:35:36;25.10;95.70
21267;DHT22;10791;53.108;18.326;2023-06-19T08:40:42;25.30;95.00
21267;DHT22;10791;53.108;18.326;2023-06-19T08:46:12;25.40;94.30
21267;DHT22;10791;53.108;18.326;2023-06-19T08:51:15;25.50;93.30
21267;DHT22;10791;53.108;18.326;2023-06-19T08:56:18;25.50;90.60
21267;DHT22;10791;53.108;18.326;2023-06-19T09:01:22;25.80;90.90
21267;DHT22;10791;53.108;18.326;2023-06-19T09:06:29;25.90;91.20
21267;DHT22;10791;53.108;18.326;2023-06-19T09:11:33;26.00;91.00
21267;DHT22;10791;53.108;18.326;2023-06-19T09:16:41;26.10;93.30
21267;DHT22;10791;53.108;18.326;2023-06-19T09:21:44;26.20;91.30
21267;DHT22;10791;53.108;18.326;2023-06-19T09:26:47;26.50;91.40
21267;DHT22;10791;53.108;18.326;2023-06-19T09:31:51;26.50;88.70
21267;DHT22;10791;53.108;18.326;2023-06-19T09:36:54;26.60;83.70
21267;DHT22;10791;53.108;18.326;2023-06-19T09:41:59;26.50;81.70
21267;DHT22;10791;53.108;18.326;2023-06-19T09:47:15;26.60;84.60
21267;DHT22;10791;53.108;18.326;2023-06-19T09:52:22;26.90;82.40
21267;DHT22;10791;53.108;18.326;2023-06-19T09:57:26;26.70;82.40
21267;DHT22;10791;53.108;18.326;2023-06-19T10:02:31;26.90;77.70
21267;DHT22;10791;53.108;18.326;2023-06-19T10:07:35;26.90;76.10
21267;DHT22;10791;53.108;18.326;2023-06-19T10:12:44;27.00;80.70
21267;DHT22;10791;53.108;18.326;2023-06-19T10:17:53;27.50;74.90
21267;DHT22;10791;53.108;18.326;2023-06-19T10:23:08;27.80;72.00
21267;DHT22;10791;53.108;18.326;2023-06-19T10:28:32;27.90;72.30
21267;DHT22;10791;53.108;18.326;2023-06-19T10:33:36;27.70;71.80
21267;DHT22;10791;53.108;18.326;2023-06-19T10:38:44;27.70;70.60
21267;DHT22;10791;53.108;18.326;2023-06-19T10:43:57;27.90;73.50
21267;DHT22;10791;53.108;18.326;2023-06-19T10:49:02;28.30;71.10
21267;DHT22;10791;53.108;18.326;2023-06-19T10:54:07;28.60;68.60
21267;DHT22;10791;53.108;18.326;2023-06-19T10:59:11;28.50;69.30
21267;DHT22;10791;53.108;18.326;2023-06-19T11:04:15;28.10;68.00
21267;DHT22;10791;53.108;18.326;2023-06-19T11:09:18;27.50;68.60
21267;DHT22;10791;53.108;18.326;2023-06-19T11:14:22;27.40;71.70
21267;DHT22;10791;53.108;18.326;2023-06-19T11:19:30;27.50;68.10
21267;DHT22;10791;53.108;18.326;2023-06-19T11:24:35;27.60;70.60
21267;DHT22;10791;53.108;18.326;2023-06-19T11:29:42;27.80;71.00
21267;DHT22;10791;53.108;18.326;2023-06-19T11:34:45;28.40;67.10
21267;DHT22;10791;53.108;18.326;2023-06-19T11:39:50;28.70;65.30
21267;DHT22;10791;53.108;18.326;2023-06-19T11:44:56;28.80;64.70
21267;DHT22;10791;53.108;18.326;2023-06-19T11:50:00;28.80;67.70
21267;DHT22;10791;53.108;18.326;2023-06-19T11:55:03;28.90;66.90
21267;DHT22;10791;53.108;18.326;2023-06-19T12:00:14;29.20;62.40
21267;DHT22;10791;53.108;18.326;2023-06-19T12:05:17;29.30;63.10
21267;DHT22;10791;53.108;18.326;2023-06-19T12:10:21;29.30;67.10
21267;DHT22;10791;53.108;18.326;2023-06-19T12:15:25;29.50;63.90
21267;DHT22;10791;53.108;18.326;2023-06-19T12:20:28;29.70;63.20
21267;DHT22;10791;53.108;18.326;2023-06-19T12:25:32;29.80;61.20
21267;DHT22;10791;53.108;18.326;2023-06-19T12:30:36;29.80;59.20
21267;DHT22;10791;53.108;18.326;2023-06-19T12:35:40;29.80;61.80
21267;DHT22;10791;53.108;18.326;2023-06-19T12:40:44;30.00;60.50
21267;DHT22;10791;53.108;18.326;2023-06-19T12:45:48;30.20;61.30
21267;DHT22;10791;53.108;18.326;2023-06-19T12:50:51;30.30;59.30
21267;DHT22;10791;53.108;18.326;2023-06-19T12:55:58;30.40;60.00
21267;DHT22;10791;53.108;18.326;2023-06-19T13:01:06;30.50;58.60
21267;DHT22;10791;53.108;18.326;2023-06-19T13:06:10;30.50;58.00
21267;DHT22;10791;53.108;18.326;2023-06-19T13:11:13;30.50;57.40
21267;DHT22;10791;53.108;18.326;2023-06-19T13:16:18;30.60;58.80
21267;DHT22;10791;53.108;18.326;2023-06-19T13:21:31;30.60;57.90
21267;DHT22;10791;53.108;18.326;2023-06-19T13:26:35;30.50;57.10
21267;DHT22;10791;53.108;18.326;2023-06-19T13:31:38;30.60;55.80
21267;DHT22;10791;53.108;18.326;2023-06-19T13:36:41;30.60;57.70
21267;DHT22;10791;53.108;18.326;2023-06-19T13:41:46;30.70;57.10
21267;DHT22;10791;53.108;18.326;2023-06-19T13:46:49;30.60;58.20
21267;DHT22;10791;53.108;18.326;2023-06-19T13:51:53;30.20;55.90
21267;DHT22;10791;53.108;18.326;2023-06-19T13:56:56;30.00;58.30
21267;DHT22;10791;53.108;18.326;2023-06-19T14:02:00;30.10;58.40
21267;DHT22;10791;53.108;18.326;2023-06-19T14:07:03;30.10;58.80
21267;DHT22;10791;53.108;18.326;2023-06-19T14:12:08;30.10;59.30
21267;DHT22;10791;53.108;18.326;2023-06-19T14:17:12;30.40;58.00
21267;DHT22;10791;53.108;18.326;2023-06-19T14:22:16;30.60;57.40
21267;DHT22;10791;53.108;18.326;2023-06-19T14:27:19;30.90;57.80
21267;DHT22;10791;53.108;18.326;2023-06-19T14:32:23;31.10;53.20
21267;DHT22;10791;53.108;18.326;2023-06-19T14:37:27;31.00;53.70
21267;DHT22;10791;53.108;18.326;2023-06-19T14:42:31;30.50;54.70
21267;DHT22;10791;53.108;18.326;2023-06-19T14:47:34;30.40;55.00
21267;DHT22;10791;53.108;18.326;2023-06-19T14:52:37;30.90;54.00
21267;DHT22;10791;53.108;18.326;2023-06-19T14:57:41;31.00;54.30
21267;DHT22;10791;53.108;18.326;2023-06-19T15:02:45;31.50;53.50
21267;DHT22;10791;53.108;18.326;2023-06-19T15:07:48;31.70;55.70
21267;DHT22;10791;53.108;18.326;2023-06-19T15:12:51;32.30;56.10
21267;DHT22;10791;53.108;18.326;2023-06-19T15:17:54;33.10;52.60
21267;DHT22;10791;53.108;18.326;2023-06-19T15:22:58;33.40;50.70
21267;DHT22;10791;53.108;18.326;2023-06-19T15:28:01;33.70;51.10
21267;DHT22;10791;53.108;18.326;2023-06-19T15:33:04;32.70;50.50
21267;DHT22;10791;53.108;18.326;2023-06-19T15:38:08;32.60;52.70
21267;DHT22;10791;53.108;18.326;2023-06-19T15:43:11;32.80;51.10
21267;DHT22;10791;53.108;18.326;2023-06-19T15:48:14;32.10;51.40
21267;DHT22;10791;53.108;18.326;2023-06-19T15:53:18;31.90;51.60
21267;DHT22;10791;53.108;18.326;2023-06-19T15:58:21;31.60;52.70
21267;DHT22;10791;53.108;18.326;2023-06-19T16:03:24;31.30;52.80
21267;DHT22;10791;53.108;18.326;2023-06-19T16:08:29;30.90;53.50
21267;DHT22;10791;53.108;18.326;2023-06-19T16:13:32;30.60;54.30
21267;DHT22;10791;53.108;18.326;2023-06-19T16:18:35;30.50;54.40
21267;DHT22;10791;53.108;18.326;2023-06-19T16:23:39;30.30;54.90
21267;DHT22;10791;53.108;18.326;2023-06-19T16:28:43;30.40;56.10
21267;DHT22;10791;53.108;18.326;2023-06-19T16:33:47;30.70;55.10
21267;DHT22;10791;53.108;18.326;2023-06-19T16:38:51;30.90;54.00
21267;DHT22;10791;53.108;18.326;2023-06-19T16:43:54;31.00;54.50
21267;DHT22;10791;53.108;18.326;2023-06-19T16:48:57;30.70;55.30
21267;DHT22;10791;53.108;18.326;2023-06-19T16:54:01;30.30;56.10
21267;DHT22;10791;53.108;18.326;2023-06-19T16:59:05;30.00;56.50
21267;DHT22;10791;53.108;18.326;2023-06-19T17:04:09;29.70;56.30
21267;DHT22;10791;53.108;18.326;2023-06-19T17:09:13;29.20;56.80
21267;DHT22;10791;53.108;18.326;2023-06-19T17:14:17;29.10;58.80
21267;DHT22;10791;53.108;18.326;2023-06-19T17:19:20;28.80;58.20
21267;DHT22;10791;53.108;18.326;2023-06-19T17:24:23;28.30;58.50
21267;DHT22;10791;53.108;18.326;2023-06-19T17:29:27;28.20;59.90
21267;DHT22;10791;53.108;18.326;2023-06-19T17:34:30;28.20;61.70
21267;DHT22;10791;53.108;18.326;2023-06-19T17:39:33;28.10;60.90
21267;DHT22;10791;53.108;18.326;2023-06-19T17:44:37;27.80;63.10
21267;DHT22;10791;53.108;18.326;2023-06-19T17:49:40;27.60;63.60
21267;DHT22;10791;53.108;18.326;2023-06-19T17:56:51;27.50;63.70
21267;DHT22;10791;53.108;18.326;2023-06-19T18:01:54;27.50;64.70
21267;DHT22;10791;53.108;18.326;2023-06-19T18:06:58;27.30;65.60
21267;DHT22;10791;53.108;18.326;2023-06-19T18:12:01;27.20;66.20
21267;DHT22;10791;53.108;18.326;2023-06-19T18:17:05;27.00;66.70
21267;DHT22;10791;53.108;18.326;2023-06-19T18:22:08;26.80;68.00
21267;DHT22;10791;53.108;18.326;2023-06-19T18:27:12;26.50;74.60
21267;DHT22;10791;53.108;18.326;2023-06-19T18:32:15;26.20;80.00
21267;DHT22;10791;53.108;18.326;2023-06-19T18:37:18;25.90;81.40
21267;DHT22;10791;53.108;18.326;2023-06-19T18:42:22;25.60;84.30
21267;DHT22;10791;53.108;18.326;2023-06-19T18:47:26;25.30;89.70
21267;DHT22;10791;53.108;18.326;2023-06-19T18:52:29;25.00;94.40
21267;DHT22;10791;53.108;18.326;2023-06-19T18:57:33;24.70;96.90
21267;DHT22;10791;53.108;18.326;2023-06-19T19:02:36;24.50;97.80
21267;DHT22;10791;53.108;18.326;2023-06-19T19:07:39;24.20;99.80
21267;DHT22;10791;53.108;18.326;2023-06-19T19:12:42;23.90;99.90
21267;DHT22;10791;53.108;18.326;2023-06-19T19:17:46;23.80;99.90
21267;DHT22;10791;53.108;18.326;2023-06-19T19:22:49;23.60;99.90
21267;DHT22;10791;53.108;18.326;2023-06-19T19:27:53;23.50;99.90
21267;DHT22;10791;53.108;18.326;2023-06-19T19:32:56;23.40;99.90
21267;DHT22;10791;53.108;18.326;2023-06-19T19:38:00;23.20;99.90
21267;DHT22;10791;53.108;18.326;2023-06-19T19:43:03;23.10;99.90
21267;DHT22;10791;53.108;18.326;2023-06-19T19:48:07;23.00;99.90
21267;DHT22;10791;53.108;18.326;2023-06-19T19:53:10;22.90;99.90
21267;DHT22;10791;53.108;18.326;2023-06-19T19:58:14;22.90;99.90
21267;DHT22;10791;53.108;18.326;2023-06-19T20:03:17;22.90;99.90
21267;DHT22;10791;53.108;18.326;2023-06-19T20:08:21;22.80;99.90
21267;DHT22;10791;53.108;18.326;2023-06-19T20:13:25;22.80;99.90
21267;DHT22;10791;53.108;18.326;2023-06-19T20:18:28;22.60;99.90
21267;DHT22;10791;53.108;18.326;2023-06-19T20:23:32;22.60;99.90
21267;DHT22;10791;53.108;18.326;2023-06-19T20:28:35;22.50;99.90
21267;DHT22;10791;53.108;18.326;2023-06-19T20:33:38;22.50;99.90
21267;DHT22;10791;53.108;18.326;2023-06-19T20:38:41;22.50;99.90
21267;DHT22;10791;53.108;18.326;2023-06-19T20:43:46;22.40;99.90
21267;DHT22;10791;53.108;18.326;2023-06-19T20:48:51;22.40;99.90
21267;DHT22;10791;53.108;18.326;2023-06-19T20:53:55;22.30;99.90
21267;DHT22;10791;53.108;18.326;2023-06-19T20:58:59;22.20;99.90
21267;DHT22;10791;53.108;18.326;2023-06-19T21:04:02;22.20;99.90
21267;DHT22;10791;53.108;18.326;2023-06-19T21:09:05;22.20;99.90
21267;DHT22;10791;53.108;18.326;2023-06-19T21:14:09;22.20;99.90
21267;DHT22;10791;53.108;18.326;2023-06-19T21:19:12;22.10;99.90
21267;DHT22;10791;53.108;18.326;2023-06-19T21:24:15;22.10;99.90
21267;DHT22;10791;53.108;18.326;2023-06-19T21:29:18;21.90;99.90
21267;DHT22;10791;53.108;18.326;2023-06-19T21:34:22;21.90;99.90
21267;DHT22;10791;53.108;18.326;2023-06-19T21:39:26;21.80;99.90
21267;DHT22;10791;53.108;18.326;2023-06-19T21:44:29;21.70;99.90
21267;DHT22;10791;53.108;18.326;2023-06-19T21:49:32;21.60;99.90
21267;DHT22;10791;53.108;18.326;2023-06-19T21:54:35;21.60;99.90
21267;DHT22;10791;53.108;18.326;2023-06-19T21:59:39;21.50;99.90
21267;DHT22;10791;53.108;18.326;2023-06-19T22:04:42;21.40;99.90
21267;DHT22;10791;53.108;18.326;2023-06-19T22:09:45;21.40;99.90
21267;DHT22;10791;53.108;18.326;2023-06-19T22:14:48;21.30;99.90
21267;DHT22;10791;53.108;18.326;2023-06-19T22:19:51;21.20;99.90
21267;DHT22;10791;53.108;18.326;2023-06-19T22:24:55;21.20;99.90
21267;DHT22;10791;53.108;18.326;2023-06-19T22:29:58;21.10;99.90
21267;DHT22;10791;53.108;18.326;2023-06-19T22:35:01;21.10;99.90
21267;DHT22;10791;53.108;18.326;2023-06-19T22:40:05;21.10;99.90
21267;DHT22;10791;53.108;18.326;2023-06-19T22:45:10;21.00;99.90
21267;DHT22;10791;53.108;18.326;2023-06-19T22:50:14;21.00;99.90
21267;DHT22;10791;53.108;18.326;2023-06-19T22:55:17;21.00;99.90
21267;DHT22;10791;53.108;18.326;2023-06-19T23:00:21;20.90;99.90
21267;DHT22;10791;53.108;18.326;2023-06-19T23:05:24;20.90;99.90
21267;DHT22;10791;53.108;18.326;2023-06-19T23:10:27;20.90;99.90
21267;DHT22;10791;53.108;18.326;2023-06-19T23:15:30;20.80;99.90
21267;DHT22;10791;53.108;18.326;2023-06-19T23:20:38;20.70;99.90
21267;DHT22;10791;53.108;18.326;2023-06-19T23:25:41;20.70;99.90
21267;DHT22;10791;53.108;18.326;2023-06-19T23:30:44;20.60;99.90
21267;DHT22;10791;53.108;18.326;2023-06-19T23:35:48;20.60;99.90
21267;DHT22;10791;53.108;18.326;2023-06-19T23:40:52;20.60;99.90
21267;DHT22;10791;53.108;18.326;2023-06-19T23:45:57;20.60;99.90
21267;DHT22;10791;53.108;18.326;2023-06-19T23:51:00;20.70;99.90
21267;DHT22;10791;53.108;18.326;2023-06-19T23:56:03;20.70;99.90
